Time;durP1;ratioP1;P1;durP2;ratioP2;P2;SDS_P1;SDS_P2;PMS_P1;PMS_P2;Temp;Humidity;BMP_temperature;BMP_pressure;BME280_temperature;BME280_humidity;BME280_pressure;Samples;Min_cycle;Max_cycle;Signal;HPM_P1;HPM_P2
2022/05/15 00:00:37;;;;;;;43.30;7.20;;;;;;;13.59;75.19;102045.56;5030360;28;20049;-82
2022/05/15 00:03:14;;;;;;;32.90;7.60;;;;;;;13.55;75.17;102044.22;5030737;28;20428;-84
2022/05/15 00:05:40;;;;;;;42.85;8.65;;;;;;;13.54;75.43;102045.25;5028831;28;20497;-83
2022/05/15 00:08:06;;;;;;;39.72;8.50;;;;;;;13.49;75.67;102044.91;5028313;28;20436;-82
2022/05/15 00:10:31;;;;;;;49.05;8.55;;;;;;;13.45;75.67;102030.03;5028829;28;20022;-81
2022/05/15 00:12:56;;;;;;;32.53;8.35;;;;;;;13.48;75.93;102030.56;5024556;28;20026;-82
2022/05/15 00:15:22;;;;;;;34.22;8.30;;;;;;;13.43;75.84;102027.50;5015633;28;20049;-82
2022/05/15 00:17:47;;;;;;;49.10;8.48;;;;;;;13.43;76.14;102027.50;5022252;28;20457;-80
2022/05/15 00:20:12;;;;;;;42.95;7.95;;;;;;;13.39;76.43;102032.41;5025961;28;20133;-80
2022/05/15 00:22:38;;;;;;;40.78;8.20;;;;;;;13.39;76.53;102027.00;5029051;28;20101;-81
2022/05/15 00:25:05;;;;;;;40.03;7.95;;;;;;;13.39;76.52;102018.88;5029381;28;20469;-81
2022/05/15 00:27:30;;;;;;;39.10;8.38;;;;;;;13.34;76.87;102023.97;5030091;28;20034;-82
2022/05/15 00:29:56;;;;;;;38.22;8.15;;;;;;;13.30;76.97;102019.94;5029367;28;20032;-79
2022/05/15 00:32:22;;;;;;;37.40;8.52;;;;;;;13.31;77.10;102015.34;5029979;28;20035;-80
2022/05/15 00:34:47;;;;;;;39.13;8.75;;;;;;;13.27;77.23;102022.09;5027974;28;20053;-82
2022/05/15 00:37:13;;;;;;;36.80;9.75;;;;;;;13.25;77.40;102019.56;5029906;28;20047;-82
2022/05/15 00:39:38;;;;;;;42.90;8.25;;;;;;;13.24;77.39;102023.25;5029192;28;20061;-82
2022/05/15 00:42:10;;;;;;;42.97;8.48;;;;;;;13.25;77.43;102018.72;5029914;28;20037;-84
2022/05/15 00:44:38;;;;;;;45.65;8.57;;;;;;;13.22;77.42;102019.91;5029179;28;20034;-82
2022/05/15 00:47:04;;;;;;;37.28;8.52;;;;;;;13.19;77.60;102014.81;5029422;28;20038;-84
2022/05/15 00:49:30;;;;;;;36.25;7.63;;;;;;;13.15;77.71;102024.28;5033479;28;20078;-80
2022/05/15 00:52:03;;;;;;;35.95;8.55;;;;;;;13.17;77.83;102022.28;5033563;28;20029;-80
2022/05/15 00:54:39;;;;;;;39.92;8.32;;;;;;;13.17;77.64;102022.28;5032870;28;20033;-80
2022/05/15 00:57:12;;;;;;;39.70;9.48;;;;;;;13.12;77.56;102019.25;5023545;28;20080;-80
2022/05/15 00:59:51;;;;;;;31.08;8.38;;;;;;;13.11;78.00;102015.69;5033763;28;20182;-80
2022/05/15 01:02:16;;;;;;;37.45;8.45;;;;;;;13.08;77.77;102024.13;5032558;28;20037;-79
2022/05/15 01:04:43;;;;;;;41.83;9.30;;;;;;;13.05;78.02;102015.50;5031973;28;20098;-80
2022/05/15 01:07:08;;;;;;;31.55;8.13;;;;;;;13.01;78.27;102014.19;5032538;28;20408;-80
2022/05/15 01:09:34;;;;;;;39.50;8.10;;;;;;;13.03;78.14;102014.84;5033655;28;20034;-80
2022/05/15 01:12:00;;;;;;;34.95;7.72;;;;;;;13.04;78.03;102022.78;5033096;28;20033;-81
2022/05/15 01:14:26;;;;;;;41.53;8.82;;;;;;;13.02;78.16;102015.84;5033005;28;20033;-81
2022/05/15 01:16:51;;;;;;;39.03;8.48;;;;;;;12.96;78.28;102020.94;5032396;28;20025;-80
2022/05/15 01:19:28;;;;;;;36.10;8.65;;;;;;;12.96;78.13;102015.53;5032963;28;20112;-80
2022/05/15 01:21:56;;;;;;;44.85;8.35;;;;;;;12.94;78.60;102016.69;5033368;28;20116;-79
2022/05/15 01:24:21;;;;;;;37.20;8.30;;;;;;;12.92;78.52;102018.72;5033168;28;20333;-80
2022/05/15 01:26:47;;;;;;;47.60;8.40;;;;;;;12.89;78.67;102025.31;5030892;28;20033;-79
2022/05/15 01:29:12;;;;;;;33.10;8.63;;;;;;;12.84;78.94;102016.03;5033011;28;20100;-80
2022/05/15 01:31:37;;;;;;;47.42;8.25;;;;;;;12.84;78.69;102021.44;5031268;28;20444;-79
2022/05/15 01:34:07;;;;;;;46.78;7.82;;;;;;;12.86;78.82;102020.25;5030570;28;20025;-79
2022/05/15 01:36:32;;;;;;;45.90;9.18;;;;;;;12.87;78.74;102021.91;5035298;28;20060;-80
2022/05/15 01:38:57;;;;;;;43.58;9.27;;;;;;;12.83;78.77;102009.78;5035201;28;20029;-80
2022/05/15 01:41:25;;;;;;;45.90;8.63;;;;;;;12.82;78.85;102016.22;5033943;28;20477;-80
2022/05/15 01:43:53;;;;;;;31.55;7.78;;;;;;;12.77;78.94;102010.47;5031669;28;20021;-82
2022/05/15 01:46:18;;;;;;;;;;;;;;;12.75;79.11;102017.88;5015197;28;20064;-82
2022/05/15 01:48:44;;;;;;;35.40;7.53;;;;;;;12.77;78.92;101999.66;5031341;28;20336;-81
2022/05/15 01:51:09;;;;;;;41.40;8.05;;;;;;;12.73;78.67;101999.13;5027990;28;20033;-83
2022/05/15 01:53:35;;;;;;;36.53;8.32;;;;;;;12.72;78.95;102002.84;5032806;28;20072;-83
2022/05/15 01:56:02;;;;;;;37.53;8.15;;;;;;;12.71;78.89;101998.44;5030415;28;20029;-83
2022/05/15 01:58:28;;;;;;;39.03;7.38;;;;;;;12.71;78.46;101997.59;5032826;28;20071;-84
2022/05/15 02:00:53;;;;;;;36.95;7.05;;;;;;;12.67;78.58;101998.97;5011505;28;20057;-82
2022/05/15 02:03:18;;;;;;;41.13;7.40;;;;;;;12.68;78.35;102003.34;5032375;28;20057;-82
2022/05/15 02:05:44;;;;;;;34.45;6.78;;;;;;;12.63;78.36;101997.59;5030994;28;20116;-82
2022/05/15 02:08:09;;;;;;;35.30;7.75;;;;;;;12.62;78.37;102006.72;5032100;28;20104;-80
2022/05/15 02:10:34;;;;;;;40.15;8.20;;;;;;;12.58;77.98;101999.97;5032724;28;20164;-82
2022/05/15 02:13:00;;;;;;;46.15;7.38;;;;;;;12.56;78.34;102001.97;5029946;28;20038;-81
2022/05/15 02:15:25;;;;;;;31.77;6.78;;;;;;;12.57;78.21;102006.38;5030773;28;20533;-82
2022/05/15 02:17:52;;;;;;;42.42;7.20;;;;;;;12.55;78.22;102003.00;5031404;28;20034;-80
2022/05/15 02:20:18;;;;;;;34.72;7.32;;;;;;;12.52;78.21;102002.31;5015831;28;20022;-79
2022/05/15 02:22:43;;;;;;;44.10;7.22;;;;;;;12.48;78.12;101995.56;5030570;28;20056;-80
2022/05/15 02:25:10;;;;;;;29.65;6.70;;;;;;;12.44;78.29;101998.75;5031947;28;20108;-80
2022/05/15 02:27:35;;;;;;;37.92;6.85;;;;;;;12.45;78.17;101995.91;5032096;28;20029;-81
2022/05/15 02:30:03;;;;;;;34.67;7.00;;;;;;;12.42;78.19;101998.06;5030407;28;20051;-81
2022/05/15 02:35:04;;;;;;;35.45;6.97;;;;;;;12.35;78.44;101994.34;5015191;22;20050;-36
2022/05/15 02:37:29;;;;;;;35.80;7.50;;;;;;;12.34;78.39;101995.34;5006861;28;20626;-33
2022/05/15 02:39:54;;;;;;;39.42;6.85;;;;;;;12.34;77.92;101988.09;5006160;28;20030;-33
2022/05/15 02:42:21;;;;;;;42.72;8.15;;;;;;;12.29;78.02;101991.28;4998944;28;20061;-33
2022/05/15 02:44:46;;;;;;;37.22;7.55;;;;;;;12.26;77.97;101988.09;4987885;28;20065;-35
2022/05/15 02:47:11;;;;;;;36.63;7.60;;;;;;;12.21;78.35;101990.44;5006762;28;20461;-33
2022/05/15 02:52:21;;;;;;;54.20;7.65;;;;;;;12.11;78.33;101992.41;5005927;28;20052;-33
2022/05/15 02:54:46;;;;;;;31.05;6.82;;;;;;;12.10;78.62;101991.59;5004571;28;20101;-33
2022/05/15 02:57:11;;;;;;;42.40;7.13;;;;;;;12.08;78.44;101986.38;5006043;28;20033;-34
2022/05/15 02:59:37;;;;;;;38.83;7.57;;;;;;;12.08;78.47;101986.38;4987489;28;20026;-36
2022/05/15 03:02:03;;;;;;;38.85;8.07;;;;;;;12.04;78.43;101985.00;5007030;28;20061;-33
2022/05/15 03:04:28;;;;;;;40.42;7.40;;;;;;;12.06;78.57;101987.53;5005759;28;20038;-34
2022/05/15 03:06:54;;;;;;;36.72;6.80;;;;;;;12.06;78.18;101980.28;5004013;28;20069;-34
2022/05/15 03:09:19;;;;;;;43.13;7.70;;;;;;;11.96;78.35;101974.19;4967136;28;20031;-33
2022/05/15 03:11:45;;;;;;;40.72;6.63;;;;;;;11.96;78.53;101973.34;5001227;28;20034;-33
2022/05/15 03:14:10;;;;;;;45.63;8.77;;;;;;;11.90;78.78;101971.28;5002601;28;20066;-34
2022/05/15 03:16:35;;;;;;;39.17;7.35;;;;;;;11.90;78.66;101964.03;5001955;28;20402;-34
2022/05/15 03:19:01;;;;;;;47.50;7.50;;;;;;;11.89;78.83;101956.09;5000941;28;20022;-34
2022/05/15 03:21:29;;;;;;;38.85;7.22;;;;;;;11.80;78.67;101961.44;5003018;28;20069;-34
2022/05/15 03:23:59;;;;;;;37.10;7.22;;;;;;;11.75;78.81;101963.78;5004720;28;20045;-34
2022/05/15 03:26:25;;;;;;;33.55;6.60;;;;;;;11.73;78.96;101962.25;4986457;28;20043;-33
2022/05/15 03:28:51;;;;;;;41.47;7.47;;;;;;;11.68;79.24;101957.34;5000316;28;20442;-33
2022/05/15 03:31:16;;;;;;;50.13;8.02;;;;;;;11.65;79.27;101961.19;5002192;28;20034;-34
2022/05/15 03:33:42;;;;;;;37.80;7.55;;;;;;;11.68;79.05;101948.41;4994474;28;20078;-32
2022/05/15 03:36:10;;;;;;;37.45;7.40;;;;;;;11.72;78.56;101955.19;4970959;28;20050;-33
2022/05/15 03:38:37;;;;;;;27.45;6.53;;;;;;;11.72;78.67;101956.00;4974600;28;20042;-35
2022/05/15 03:41:03;;;;;;;35.17;7.05;;;;;;;11.71;78.58;101953.47;4978616;28;20034;-35
2022/05/15 03:43:28;;;;;;;42.78;8.40;;;;;;;11.65;78.62;101949.56;4959348;28;20132;-34
2022/05/15 03:45:53;;;;;;;33.50;7.10;;;;;;;11.65;78.52;101955.81;4977303;28;20366;-32
2022/05/15 03:48:19;;;;;;;38.45;7.05;;;;;;;11.66;78.37;101956.63;4977943;28;20074;-32
2022/05/15 03:50:44;;;;;;;36.38;7.20;;;;;;;11.68;78.38;101953.78;4976248;28;20050;-31
2022/05/15 03:53:09;;;;;;;37.92;7.38;;;;;;;11.66;78.31;101953.94;4978748;28;20565;-34
2022/05/15 03:55:35;;;;;;;43.40;7.18;;;;;;;11.64;78.24;101958.69;4978594;28;20068;-34
2022/05/15 03:58:00;;;;;;;41.58;7.38;;;;;;;11.59;78.52;101959.16;4977930;28;20134;-35
2022/05/15 04:00:28;;;;;;;28.80;6.70;;;;;;;11.55;78.46;101949.69;4976152;28;20045;-36
2022/05/15 04:02:53;;;;;;;31.73;6.53;;;;;;;11.55;78.62;101955.06;4977375;28;20457;-34
2022/05/15 04:05:19;;;;;;;29.27;6.47;;;;;;;11.59;78.44;101951.06;4977625;28;20030;-32
2022/05/15 04:07:45;;;;;;;30.55;6.45;;;;;;;11.58;78.29;101951.22;4961257;28;20058;-34
2022/05/15 04:10:12;;;;;;;37.25;7.13;;;;;;;11.57;78.08;101953.06;4981795;28;20058;-34
2022/05/15 04:12:38;;;;;;;34.03;6.93;;;;;;;11.56;78.23;101955.94;4980763;28;20625;-32
2022/05/15 04:15:03;;;;;;;43.88;8.07;;;;;;;11.58;78.10;101953.91;4980809;28;20031;-34
2022/05/15 04:17:29;;;;;;;39.67;6.28;;;;;;;11.62;78.07;101961.53;4982566;28;20030;-34
2022/05/15 04:19:54;;;;;;;36.90;6.32;;;;;;;11.60;78.15;101957.31;4983344;28;20053;-34
2022/05/15 04:22:19;;;;;;;32.92;6.72;;;;;;;11.60;78.13;101958.13;4985883;28;20031;-35
2022/05/15 04:24:44;;;;;;;35.00;7.10;;;;;;;11.62;77.96;101956.13;4987227;28;20031;-33
2022/05/15 04:27:10;;;;;;;34.22;6.03;;;;;;;11.65;77.75;101961.19;4986783;28;20026;-34
2022/05/15 04:29:35;;;;;;;30.77;6.55;;;;;;;11.69;77.63;101960.88;4985942;28;20031;-33
2022/05/15 04:32:00;;;;;;;40.38;7.10;;;;;;;11.75;77.35;101960.25;4987406;28;20070;-35
2022/05/15 04:34:27;;;;;;;37.80;7.05;;;;;;;11.74;77.04;101963.94;4986577;28;20140;-34
2022/05/15 04:36:53;;;;;;;34.47;7.05;;;;;;;11.74;77.26;101959.41;4986255;28;20049;-34
2022/05/15 04:39:19;;;;;;;36.08;7.05;;;;;;;11.78;77.03;101957.22;4986465;28;20031;-32
2022/05/15 04:41:44;;;;;;;29.85;6.65;;;;;;;11.78;76.68;101955.34;4986892;28;20039;-34
2022/05/15 04:44:10;;;;;;;32.13;7.57;;;;;;;11.75;76.87;101958.38;4986885;28;20026;-34
2022/05/15 04:46:35;;;;;;;33.15;6.13;;;;;;;11.80;76.70;101953.34;4986551;28;20034;-34
2022/05/15 04:49:01;;;;;;;33.90;6.40;;;;;;;11.83;76.52;101949.47;4969468;28;20090;-36
2022/05/15 04:51:26;;;;;;;30.55;6.20;;;;;;;11.88;76.35;101944.47;4987767;28;20062;-34
2022/05/15 04:53:52;;;;;;;35.78;6.00;;;;;;;11.87;76.10;101953.56;4987386;28;20419;-35
2022/05/15 04:56:17;;;;;;;37.88;6.63;;;;;;;11.94;76.15;101951.06;4988282;28;20095;-36
2022/05/15 04:58:43;;;;;;;42.08;6.85;;;;;;;12.01;75.90;101952.94;4988196;28;20046;-34
2022/05/15 05:01:08;;;;;;;38.80;7.70;;;;;;;12.10;75.35;101947.56;4987636;28;20042;-36
2022/05/15 05:03:34;;;;;;;39.38;6.25;;;;;;;12.20;74.89;101959.06;4987464;28;20058;-35
2022/05/15 05:05:59;;;;;;;44.90;6.85;;;;;;;12.24;74.61;101949.59;4987491;28;20036;-34
2022/05/15 05:08:24;;;;;;;33.55;5.97;;;;;;;12.33;74.52;101955.88;4986776;28;20042;-36
2022/05/15 05:10:49;;;;;;;39.17;6.72;;;;;;;12.35;73.90;101949.31;4985309;28;20027;-34
2022/05/15 05:13:15;;;;;;;29.65;6.32;;;;;;;12.42;73.79;101955.72;4969971;28;20103;-35
2022/05/15 05:15:40;;;;;;;44.97;6.85;;;;;;;12.48;73.16;101955.06;4970569;28;20039;-33
2022/05/15 05:18:06;;;;;;;31.58;6.20;;;;;;;12.57;73.01;101957.78;4987444;28;20030;-34
2022/05/15 05:20:31;;;;;;;25.75;5.70;;;;;;;12.61;72.69;101945.59;4987642;28;20075;-36
2022/05/15 05:22:57;;;;;;;31.08;6.50;;;;;;;12.62;72.41;101958.13;4985956;28;20031;-36
2022/05/15 05:25:22;;;;;;;32.67;6.38;;;;;;;12.71;72.49;101952.53;4971634;28;20043;-32
2022/05/15 05:27:47;;;;;;;32.65;6.80;;;;;;;12.76;72.15;101948.47;4988957;28;20031;-33
2022/05/15 05:30:19;;;;;;;31.77;6.63;;;;;;;12.86;71.81;101947.28;4980746;28;20023;-34
2022/05/15 05:32:44;;;;;;;37.60;6.70;;;;;;;12.87;71.94;101948.97;4962344;28;20043;-34
2022/05/15 05:35:11;;;;;;;31.38;6.43;;;;;;;12.97;71.41;101948.81;4988113;28;20050;-33
2022/05/15 05:37:36;;;;;;;28.50;5.55;;;;;;;13.08;70.97;101947.59;4987787;28;20038;-33
2022/05/15 05:40:02;;;;;;;41.15;7.20;;;;;;;13.15;70.78;101949.44;4987970;28;20042;-35
2022/05/15 05:42:28;;;;;;;35.17;7.00;;;;;;;13.23;70.60;101954.00;4986567;28;20053;-33
2022/05/15 05:44:54;;;;;;;35.00;7.45;;;;;;;13.29;70.08;101956.03;4984274;28;20035;-34
2022/05/15 05:47:26;;;;;;;34.28;6.32;;;;;;;13.29;69.67;101950.63;4986093;28;20373;-31
2022/05/15 05:49:52;;;;;;;40.45;7.07;;;;;;;13.44;70.12;101971.56;4978617;28;20442;-32
2022/05/15 05:52:18;;;;;;;33.72;5.88;;;;;;;13.53;69.22;101967.81;4965890;28;20035;-33
2022/05/15 05:54:43;;;;;;;25.40;5.93;;;;;;;13.63;69.35;101960.34;4979645;28;20045;-36
2022/05/15 05:57:09;;;;;;;34.75;5.70;;;;;;;13.69;68.61;101967.78;4985460;28;20099;-36
2022/05/15 05:59:34;;;;;;;33.80;6.47;;;;;;;13.79;68.47;101962.97;4969146;28;20046;-37
2022/05/15 06:01:59;;;;;;;30.27;6.05;;;;;;;13.96;68.24;101968.31;4986242;28;20074;-37
2022/05/15 06:04:41;;;;;;;29.45;6.20;;;;;;;14.21;67.67;101967.16;4969408;28;20027;-34
2022/05/15 06:07:09;;;;;;;44.78;6.75;;;;;;;14.60;67.20;101965.41;4985235;28;20065;-35
2022/05/15 06:09:42;;;;;;;34.88;6.85;;;;;;;15.21;65.35;101976.22;4987265;28;20509;-36
2022/05/15 06:12:08;;;;;;;36.50;6.72;;;;;;;15.96;62.91;101972.53;4977667;28;20033;-33
2022/05/15 06:14:34;;;;;;;34.78;6.82;;;;;;;16.89;59.99;101968.06;4950091;29;20020;-36
2022/05/15 06:16:59;;;;;;;29.88;6.18;;;;;;;17.68;58.12;101975.94;4964499;28;20098;-33
2022/05/15 06:19:24;;;;;;;32.55;6.63;;;;;;;18.79;55.40;101975.69;4986398;28;20034;-32
2022/05/15 06:21:50;;;;;;;29.25;5.97;;;;;;;19.66;51.04;101964.66;4985978;28;20069;-33
2022/05/15 06:24:15;;;;;;;30.40;6.78;;;;;;;19.83;50.43;101967.81;4985867;28;20133;-33
2022/05/15 06:26:40;;;;;;;30.73;6.15;;;;;;;20.17;50.02;101977.53;4985060;28;20031;-37
2022/05/15 06:29:06;;;;;;;27.73;6.47;;;;;;;20.79;48.47;101975.88;4986045;28;20027;-33
2022/05/15 06:31:31;;;;;;;28.88;6.05;;;;;;;20.88;47.59;101972.84;4984238;28;20153;-33
2022/05/15 06:33:56;;;;;;;30.58;6.15;;;;;;;21.20;46.95;101971.72;4987002;28;20043;-34
2022/05/15 06:36:22;;;;;;;35.38;7.20;;;;;;;21.45;46.99;101979.94;4986975;28;20037;-35
2022/05/15 06:38:47;;;;;;;34.78;7.68;;;;;;;21.59;46.17;101974.31;4988288;28;20038;-35
2022/05/15 06:41:13;;;;;;;31.85;7.60;;;;;;;21.39;45.79;101974.53;4988304;28;20035;-34
2022/05/15 06:43:38;;;;;;;29.15;7.15;;;;;;;21.38;45.98;101975.56;4987899;28;20031;-34
2022/05/15 06:46:03;;;;;;;30.55;6.82;;;;;;;21.71;45.22;101975.22;4987463;28;20023;-34
2022/05/15 06:48:29;;;;;;;36.17;7.75;;;;;;;22.09;45.02;101971.38;4987700;28;20034;-34
2022/05/15 06:50:54;;;;;;;32.10;7.13;;;;;;;22.46;44.51;101972.16;4987871;28;20034;-33
2022/05/15 06:53:20;;;;;;;39.50;8.23;;;;;;;22.82;42.77;101966.75;4986819;28;20429;-36
2022/05/15 06:58:29;;;;;;;41.78;8.48;;;;;;;23.21;42.40;101952.34;4986752;28;20053;-36
2022/05/15 07:00:55;;;;;;;33.88;7.70;;;;;;;23.29;42.56;101956.63;4986935;28;20026;-35
2022/05/15 07:03:21;;;;;;;36.03;7.55;;;;;;;23.64;41.24;101958.50;4985840;28;20036;-33
2022/05/15 07:05:46;;;;;;;33.72;8.05;;;;;;;23.52;41.44;101960.44;4988003;28;20133;-34
2022/05/15 07:08:14;;;;;;;49.28;7.95;;;;;;;24.20;40.62;101962.44;4988333;28;20050;-35
2022/05/15 07:10:40;;;;;;;37.63;8.43;;;;;;;24.77;39.60;101967.03;4988359;28;20031;-36
2022/05/15 07:13:06;;;;;;;39.67;8.70;;;;;;;25.19;38.93;101970.19;4987390;28;20548;-34
2022/05/15 07:15:31;;;;;;;40.65;8.93;;;;;;;25.03;37.15;101973.78;4986826;28;20072;-35
2022/05/15 07:17:57;;;;;;;34.72;8.70;;;;;;;24.39;39.52;101965.78;4986585;28;20038;-34
2022/05/15 07:20:22;;;;;;;43.47;8.45;;;;;;;25.10;38.80;101960.69;4986984;28;20050;-34
2022/05/15 07:22:47;;;;;;;34.33;7.80;;;;;;;25.03;37.75;101965.53;4985110;28;20027;-35
2022/05/15 07:25:13;;;;;;;35.97;8.55;;;;;;;25.15;38.06;101971.81;4986377;28;20046;-35
2022/05/15 07:27:38;;;;;;;40.50;8.80;;;;;;;25.90;36.61;101975.03;4984994;28;20039;-35
2022/05/15 07:30:04;;;;;;;42.95;8.63;;;;;;;25.85;36.62;101966.72;4985375;28;20046;-36
2022/05/15 07:32:29;;;;;;;42.13;8.88;;;;;;;26.13;36.21;101970.34;4986022;28;20015;-33
2022/05/15 07:34:55;;;;;;;45.95;9.27;;;;;;;26.28;35.99;101959.47;4985984;28;20051;-35
2022/05/15 07:37:20;;;;;;;38.63;8.18;;;;;;;26.77;34.83;101958.56;4984509;28;20101;-36
2022/05/15 07:39:45;;;;;;;48.95;8.77;;;;;;;27.13;34.48;101965.19;4986238;28;20027;-34
2022/05/15 07:42:11;;;;;;;39.80;9.43;;;;;;;27.03;34.02;101959.59;4984862;28;20509;-35
2022/05/15 07:44:37;;;;;;;41.50;8.80;;;;;;;26.89;34.37;101953.69;4984400;28;20542;-34
2022/05/15 07:47:02;;;;;;;42.92;9.23;;;;;;;26.78;34.75;101958.31;4985417;28;20042;-34
2022/05/15 07:49:28;;;;;;;39.85;8.45;;;;;;;26.75;34.65;101960.75;4986233;28;20090;-33
2022/05/15 07:51:53;;;;;;;48.65;9.30;;;;;;;26.64;35.09;101962.59;4987125;28;20026;-34
2022/05/15 07:54:19;;;;;;;49.03;9.07;;;;;;;26.73;35.27;101961.03;4988399;28;20043;-36
2022/05/15 07:56:44;;;;;;;41.10;9.80;;;;;;;27.31;33.65;101962.03;4987305;28;20035;-35
2022/05/15 07:59:11;;;;;;;38.80;8.52;;;;;;;27.30;34.10;101948.47;4988374;28;20030;-33
2022/05/15 08:01:37;;;;;;;46.72;9.82;;;;;;;27.78;33.03;101944.56;4988035;28;20099;-35
2022/05/15 08:04:03;;;;;;;46.97;9.40;;;;;;;27.75;32.89;101938.72;4987055;28;20091;-34
2022/05/15 08:09:12;;;;;;;39.78;9.30;;;;;;;27.77;32.98;101934.56;4988285;28;20102;-34
2022/05/15 08:11:38;;;;;;;43.30;10.05;;;;;;;27.84;32.75;101930.78;4988115;28;20027;-34
2022/05/15 08:14:05;;;;;;;54.40;10.63;;;;;;;27.31;34.27;101931.63;4989328;28;20034;-34
2022/05/15 08:16:32;;;;;;;47.08;9.88;;;;;;;27.82;33.12;101924.66;4990486;28;20102;-34
2022/05/15 08:24:26;;;;;;;48.17;9.23;;;;;;;27.87;33.80;101913.63;5009578;28;20045;-35
2022/05/15 08:26:52;;;;;;;43.38;9.88;;;;;;;28.32;33.30;101910.09;5004067;28;20083;-34
2022/05/15 08:29:18;;;;;;;46.58;10.20;;;;;;;28.48;32.58;101913.72;4989091;28;20066;-34
2022/05/15 08:31:44;;;;;;;45.55;9.75;;;;;;;28.39;32.72;101916.19;4989979;28;20066;-33
2022/05/15 08:34:09;;;;;;;44.97;10.85;;;;;;;28.53;32.45;101899.88;4989849;28;20046;-34
2022/05/15 08:36:36;;;;;;;43.65;10.02;;;;;;;28.38;33.07;101902.63;4990535;28;20063;-34
2022/05/15 08:39:02;;;;;;;;;;;;;;;28.18;33.48;101901.50;4985141;28;20027;-33
2022/05/15 08:41:31;;;;;;;35.17;10.10;;;;;;;28.28;33.10;101899.84;4970137;29;19920;-35
2022/05/15 08:44:09;;;;;;;48.22;10.32;;;;;;;28.54;32.85;101906.25;4971630;29;20282;-33
2022/05/15 08:46:57;;;;;;;47.97;10.80;;;;;;;28.57;32.32;101917.63;4986519;28;20042;-34
2022/05/15 08:49:27;;;;;;;38.78;9.32;;;;;;;28.39;33.17;101907.88;4989687;28;20340;-34
2022/05/15 08:52:07;;;;;;;45.90;11.30;;;;;;;28.33;33.01;101916.44;4971488;28;20035;-37
2022/05/15 08:54:36;;;;;;;45.95;11.60;;;;;;;27.95;33.50;101904.78;4971750;28;20031;-36
2022/05/15 08:57:01;;;;;;;48.30;10.27;;;;;;;28.96;32.82;101908.69;4987971;28;20023;-35
2022/05/15 08:59:46;;;;;;;49.55;10.95;;;;;;;29.32;32.18;101906.69;4989121;28;20070;-36
2022/05/15 09:02:11;;;;;;;51.72;10.32;;;;;;;30.12;30.74;101891.03;4970657;28;20065;-33
2022/05/15 09:04:38;;;;;;;49.50;10.60;;;;;;;30.20;30.42;101890.41;4989039;28;20038;-35
2022/05/15 09:07:11;;;;;;;33.47;9.88;;;;;;;30.18;30.20;101887.13;4971235;28;20019;-34
2022/05/15 09:09:55;;;;;;;49.60;11.10;;;;;;;28.91;31.28;101883.75;4972396;28;20425;-34
2022/05/15 09:12:22;;;;;;;38.42;10.18;;;;;;;29.19;31.71;101884.28;4990646;28;20010;-35
2022/05/15 09:14:54;;;;;;;38.15;9.38;;;;;;;29.77;31.10;101883.78;4996239;28;20076;-34
2022/05/15 09:17:41;;;;;;;41.25;10.00;;;;;;;29.67;30.92;101881.88;4990693;28;20066;-33
2022/05/15 09:20:16;;;;;;;44.75;11.02;;;;;;;29.21;31.08;101887.59;4992292;28;20037;-35
2022/05/15 09:22:54;;;;;;;46.55;12.23;;;;;;;28.17;32.23;101891.56;4994783;28;20030;-36
2022/05/15 09:25:22;;;;;;;43.05;9.93;;;;;;;28.91;32.31;101889.31;4980679;28;20030;-34
2022/05/15 09:28:03;;;;;;;44.35;10.95;;;;;;;29.57;30.07;101893.00;4988914;28;20042;-34
2022/05/15 09:30:39;;;;;;;44.85;11.02;;;;;;;28.88;31.63;101892.63;4991395;28;20022;-33
2022/05/15 09:33:06;;;;;;;44.10;11.55;;;;;;;29.51;30.26;101901.34;4990717;28;20030;-34
2022/05/15 09:35:38;;;;;;;42.58;10.70;;;;;;;29.07;30.46;101899.28;4991729;28;20118;-34
2022/05/15 09:43:36;;;;;;;38.97;11.35;;;;;;;29.84;28.91;101899.00;4997915;28;19933;-34
2022/05/15 09:46:11;;;;;;;45.92;11.30;;;;;;;29.25;30.19;101894.22;5011021;28;20034;-33
2022/05/15 09:48:41;;;;;;;43.00;10.43;;;;;;;29.27;30.59;101878.97;5010791;28;20049;-33
2022/05/15 09:51:12;;;;;;;36.17;9.07;;;;;;;30.05;28.64;101890.53;4976163;28;20042;-35
2022/05/15 09:53:44;;;;;;;39.92;10.52;;;;;;;29.55;28.92;101887.75;4989404;28;20114;-35
2022/05/15 09:56:13;;;;;;;44.70;10.65;;;;;;;29.50;29.67;101885.00;4972727;28;20071;-36
2022/05/15 09:58:58;;;;;;;41.03;10.35;;;;;;;30.07;28.87;101888.28;4972395;28;20027;-35
2022/05/15 10:01:30;;;;;;;38.88;9.82;;;;;;;30.35;28.13;101882.00;4985500;28;20046;-35
2022/05/15 10:03:57;;;;;;;47.35;10.45;;;;;;;29.84;29.51;101878.75;4988271;28;20042;-34
2022/05/15 10:06:26;;;;;;;42.63;11.35;;;;;;;29.23;29.25;101882.63;4988645;28;20038;-34
2022/05/15 10:09:13;;;;;;;42.28;12.02;;;;;;;28.41;31.00;101877.13;4990707;28;20034;-33
2022/05/15 10:11:42;;;;;;;42.53;11.57;;;;;;;29.20;29.75;101875.69;5001800;28;20102;-33
2022/05/15 10:14:10;;;;;;;49.03;10.93;;;;;;;29.51;28.36;101868.06;4972494;28;20054;-33
2022/05/15 10:16:48;;;;;;;37.45;10.68;;;;;;;29.49;28.68;101861.97;4990595;28;20094;-34
2022/05/15 10:19:13;;;;;;;49.50;11.30;;;;;;;29.84;28.20;101871.25;4989412;28;20027;-34
2022/05/15 10:21:51;;;;;;;39.70;9.90;;;;;;;29.68;27.44;101872.47;4989180;28;20073;-35
2022/05/15 10:24:24;;;;;;;40.22;10.45;;;;;;;29.61;27.87;101860.81;4973037;28;20442;-33
2022/05/15 10:27:04;;;;;;;42.10;11.95;;;;;;;29.43;28.45;101868.66;4972290;28;20559;-33
2022/05/15 10:29:38;;;;;;;41.03;9.98;;;;;;;28.77;29.60;101858.59;4988897;28;20125;-34
2022/05/15 10:32:09;;;;;;;50.53;10.07;;;;;;;27.74;31.20;101860.44;4989606;28;20058;-34
2022/05/15 10:34:35;;;;;;;46.80;11.32;;;;;;;28.21;30.49;101862.19;4971724;28;20058;-33
2022/05/15 10:37:32;;;;;;;43.67;11.93;;;;;;;29.04;29.26;101868.50;4988801;28;20031;-33
2022/05/15 10:40:13;;;;;;;38.47;11.43;;;;;;;29.02;29.04;101865.19;4956855;28;20023;-35
2022/05/15 10:43:05;;;;;;;37.85;9.52;;;;;;;29.27;28.83;101856.78;4971548;28;20125;-35
2022/05/15 10:46:08;;;;;;;47.80;11.80;;;;;;;28.78;29.20;101851.94;4979459;28;20034;-34
2022/05/15 10:48:46;;;;;;;37.63;10.35;;;;;;;28.65;29.58;101847.81;4988232;28;20049;-34
2022/05/15 10:51:22;;;;;;;40.92;11.43;;;;;;;29.29;28.07;101846.25;4988574;28;20045;-33
2022/05/15 10:59:59;;;;;;;29.20;9.05;;;;;;;30.19;26.62;101841.56;4965043;28;20053;-33
2022/05/15 11:02:59;;;;;;;46.22;10.52;;;;;;;30.28;26.69;101834.31;4988925;28;20035;-33
2022/05/15 11:05:33;;;;;;;46.30;11.30;;;;;;;30.96;25.80;101832.50;4987755;28;20034;-33
2022/05/15 11:08:07;;;;;;;41.42;9.48;;;;;;;31.37;25.53;101827.31;4988590;28;20099;-34
2022/05/15 11:10:44;;;;;;;36.53;10.10;;;;;;;31.43;24.31;101830.84;4970430;28;20037;-32
2022/05/15 11:13:26;;;;;;;42.70;10.48;;;;;;;31.13;24.94;101832.88;4968674;28;20050;-33
2022/05/15 11:16:16;;;;;;;44.22;13.15;;;;;;;30.50;26.47;101824.66;4977997;28;20077;-35
2022/05/15 11:19:09;;;;;;;41.25;11.95;;;;;;;29.83;26.94;101827.94;4981403;28;20069;-34
2022/05/15 11:21:55;;;;;;;42.55;10.73;;;;;;;30.30;26.72;101809.00;4968307;29;20058;-33
2022/05/15 11:24:26;;;;;;;36.60;9.02;;;;;;;30.03;26.61;101806.72;4982346;28;20061;-35
2022/05/15 11:26:55;;;;;;;33.63;10.27;;;;;;;29.41;26.54;101804.34;4988554;28;20038;-34
2022/05/15 11:29:21;;;;;;;38.38;9.32;;;;;;;29.18;28.01;101805.00;4955072;28;20034;-33
2022/05/15 11:31:52;;;;;;;35.92;9.45;;;;;;;29.09;27.44;101790.91;4988437;28;20029;-34
2022/05/15 11:34:17;;;;;;;42.70;10.20;;;;;;;29.91;26.61;101794.06;4988648;28;20062;-33
2022/05/15 11:36:48;;;;;;;44.72;10.68;;;;;;;29.97;26.54;101790.09;4969196;28;20034;-33
2022/05/15 11:39:14;;;;;;;41.63;9.60;;;;;;;30.39;26.23;101776.72;4986260;28;20031;-35
2022/05/15 11:42:08;;;;;;;49.10;12.30;;;;;;;29.19;26.14;101781.72;4986618;28;20038;-34
2022/05/15 11:44:34;;;;;;;41.67;10.77;;;;;;;29.58;26.82;101775.38;4985977;28;20023;-35
2022/05/15 11:47:02;;;;;;;34.78;11.43;;;;;;;30.10;25.75;101777.50;4985874;28;20026;-34
2022/05/15 11:49:34;;;;;;;33.22;10.13;;;;;;;29.97;25.58;101773.44;4969759;28;20030;-34